X  Close Metar Aviation Weather Data     EHRD Rotterdam The Hague Airport
Temperature
6°C Temperature
1°C Dewpoint
71% Humidity



Wind
14 KM/H
9 MPH
4 M/S
8 KTS



250°
WSW
Current Conditions

Clear Clear
Pressure 1016.92 (hPa) - 30.03 (inHg)
Visibility 6.2 (mile) - 10 (km)
Airport
Airport-code EHRD

Location: Rotterdam The Hague Airport
Distance: 16 (km)

Metar:
EHRD 261425Z AUTO 25008KT 220V280 9999 NSC 06/01 Q1017 NOSIG

Time: 26-01-2021 15:25 CET